NCAR-RAP Real-Time Weather Data

Output produced by METARs form (08 May 2021  17:14 UTC)
found at http://weather.rap.ucar.edu/surface/
 
KEAT 081655Z AUTO 29017G23KT 10SM CLR 12/M04 A3023 RMK AO2 SLP239 T01221044
KEAT 081555Z AUTO 29013KT 10SM CLR 11/M03 A3023 RMK AO2 SLP241 T01111033
KEAT 081455Z AUTO 30013KT 10SM CLR 08/M03 A3023 RMK AO2 SLP242 T00831033 51007
KEAT 081355Z AUTO 28013KT 10SM CLR 07/M04 A3023 RMK AO2 SLP238 T00721039
KEAT 081255Z AUTO 33005KT 10SM CLR 05/M05 A3022 RMK AO2 SLP237 T00501050
KEAT 081155Z AUTO 29008KT 10SM CLR 06/M05 A3021 RMK AO2 SLP233 T00561050 10078 20056 53008
KEAT 081055Z AUTO 29011KT 10SM CLR 07/M06 A3019 RMK AO2 SLP225 T00671056
KEAT 080955Z AUTO 28011KT 10SM CLR 07/M06 A3019 RMK AO2 SLP226 T00671056
KEAT 080855Z AUTO 28011KT 10SM CLR 08/M06 A3019 RMK AO2 SLP225 T00781056 51009
KEAT 080755Z AUTO 26007KT 10SM CLR 08/M05 A3018 RMK AO2 SLP223 T00781050 401560067
KEAT 080655Z AUTO 28013KT 10SM CLR 08/M04 A3016 RMK AO2 SLP216 T00781044
KEAT 080555Z AUTO 29014KT 10SM CLR 08/M04 A3016 RMK AO2 SLP214 T00781044 10144 20078 51014
KEAT 080455Z AUTO 29016KT 10SM CLR 08/M04 A3015 RMK AO2 SLP212 T00831044